Time;durP1;ratioP1;P1;durP2;ratioP2;P2;SDS_P1;SDS_P2;PMS_P1;PMS_P2;Temp;Humidity;BMP_temperature;BMP_pressure;BME280_temperature;BME280_humidity;BME280_pressure;Samples;Min_cycle;Max_cycle;Signal;HPM_P1;HPM_P2
2022/10/17 00:00:22;;;;;;;2.35;1.88;;;16.30;58.50;;;15.44;58.07;101899.44;12257607;19;20015;-85
2022/10/17 00:04:23;;;;;;;6.22;2.20;;;16.20;58.40;;;15.51;58.16;101906.06;12259704;19;20015;-84
2022/10/17 00:08:25;;;;;;;2.28;1.95;;;16.30;58.50;;;15.44;58.02;101892.38;12260158;19;20427;-85
2022/10/17 00:12:26;;;;;;;3.90;2.50;;;16.30;58.60;;;15.36;58.27;101875.31;12257119;19;20408;-85
2022/10/17 00:16:36;;;;;;;2.40;2.00;;;16.30;58.60;;;15.42;58.02;101896.91;12257407;19;20019;-85
2022/10/17 00:20:38;;;;;;;2.15;2.00;;;16.30;58.80;;;15.44;58.28;101905.53;12255851;19;20456;-85
2022/10/17 00:24:39;;;;;;;1.77;1.67;;;16.30;58.70;;;15.43;58.16;101897.75;12253150;19;20092;-85
2022/10/17 00:28:41;;;;;;;5.10;1.83;;;16.40;58.70;;;15.55;58.24;101912.81;12256920;19;20101;-84
2022/10/17 00:32:45;;;;;;;4.07;1.77;;;16.40;58.80;;;15.46;58.16;101876.50;12260291;19;20022;-85
2022/10/17 00:36:47;;;;;;;2.65;1.98;;;16.40;58.90;;;15.48;58.38;101886.00;12255201;19;20023;-85
2022/10/17 00:40:48;;;;;;;2.45;2.05;;;16.40;58.90;;;15.42;58.57;101880.25;12253468;19;20013;-85
2022/10/17 00:45:26;;;;;;;6.10;1.90;;;16.30;58.90;;;15.45;58.38;101896.72;12254076;19;20006;-84
2022/10/17 00:49:33;;;;;;;1.70;1.60;;;16.30;59.00;;;15.41;58.70;101897.81;12250563;19;20031;-84
2022/10/17 00:53:35;;;;;;;2.60;1.80;;;16.30;58.90;;;15.44;58.60;101886.25;12255212;19;20018;-84
2022/10/17 00:57:38;;;;;;;1.80;1.63;;;16.40;58.90;;;15.46;58.74;101881.78;12250787;19;20003;-84
2022/10/17 01:01:47;;;;;;;1.85;1.75;;;16.50;58.90;;;15.49;58.56;101900.84;12251100;19;20078;-84
2022/10/17 01:05:49;;;;;;;4.60;1.73;;;16.30;58.80;;;15.38;58.54;101876.94;12253949;19;20018;-85
2022/10/17 01:09:54;;;;;;;3.85;2.05;;;16.30;58.70;;;15.40;58.42;101893.50;12255080;19;20011;-85
2022/10/17 01:14:30;;;;;;;3.47;2.05;;;16.30;58.70;;;15.29;58.58;101895.88;12248791;19;20043;-84
2022/10/17 01:18:47;;;;;;;1.65;1.55;;;16.20;58.80;;;15.05;58.58;101859.50;12254360;19;20018;-84
2022/10/17 01:22:58;;;;;;;2.38;1.63;;;16.30;58.80;;;15.26;58.64;101894.28;12255195;19;20383;-85
2022/10/17 01:27:29;;;;;;;3.58;3.28;;;16.20;58.90;;;15.24;58.55;101880.34;12249360;19;20018;-84
2022/10/17 01:31:43;;;;;;;3.30;1.70;;;16.20;59.10;;;15.32;58.77;101884.34;12251858;19;20057;-85
2022/10/17 01:36:04;;;;;;;2.20;2.00;;;16.20;59.10;;;15.22;58.68;101863.78;12253581;19;20024;-85
2022/10/17 01:40:20;;;;;;;6.90;1.60;;;16.20;59.10;;;15.23;58.73;101870.78;12249515;19;20029;-84
2022/10/17 01:45:04;;;;;;;2.28;2.03;;;16.10;59.10;;;15.18;58.66;101861.44;12251237;19;20014;-84
2022/10/17 01:49:11;;;;;;;1.50;1.40;;;16.10;59.30;;;15.18;58.79;101851.75;12248590;19;20018;-85
2022/10/17 01:53:38;;;;;;;3.53;1.60;;;16.30;59.40;;;15.21;58.84;101856.84;12263234;19;20018;-84
2022/10/17 01:57:54;;;;;;;1.80;1.65;;;16.10;59.40;;;15.17;58.78;101865.00;12250110;19;20017;-84
2022/10/17 02:01:59;;;;;;;4.28;2.90;;;16.00;59.10;;;15.13;58.81;101855.59;12251289;19;20015;-85
2022/10/17 02:06:03;;;;;;;1.83;1.73;;;16.00;59.10;;;15.13;58.74;101855.59;12251283;19;20111;-84
2022/10/17 02:10:18;;;;;;;3.30;1.35;;;16.00;59.10;;;15.03;58.84;101852.63;12252079;19;19999;-84
2022/10/17 02:14:58;;;;;;;1.63;1.52;;;16.00;59.10;;;15.10;58.70;101861.03;12251360;19;20006;-84
2022/10/17 02:19:27;;;;;;;1.60;1.50;;;16.00;59.10;;;15.08;58.95;101871.63;12250994;19;20473;-84
2022/10/17 02:23:41;;;;;;;1.38;1.27;;;16.00;59.40;;;15.06;58.81;101873.47;12251229;19;20027;-85
2022/10/17 02:28:20;;;;;;;1.40;1.23;;;15.90;59.10;;;15.04;58.89;101883.22;12245703;19;20353;-85
2022/10/17 02:32:34;;;;;;;2.88;1.60;;;15.90;59.10;;;15.00;58.93;101869.41;12248648;19;20018;-85
2022/10/17 02:36:40;;;;;;;3.55;1.48;;;15.90;59.10;;;15.05;59.08;101879.69;12252474;19;20344;-84
2022/10/17 02:40:45;;;;;;;1.88;1.70;;;15.90;59.20;;;14.82;59.19;101829.22;12258331;19;20035;-84
2022/10/17 02:44:47;;;;;;;1.55;1.45;;;15.90;59.10;;;14.79;59.08;101820.63;12260418;19;20015;-85
2022/10/17 02:48:56;;;;;;;1.60;1.50;;;15.90;59.00;;;14.91;59.08;101862.03;12262419;19;20014;-84
2022/10/17 02:53:13;;;;;;;2.28;1.33;;;15.90;59.00;;;14.96;59.17;101875.78;12262418;19;20013;-85
2022/10/17 02:57:36;;;;;;;1.35;1.25;;;16.00;59.20;;;14.82;58.99;101849.38;12255707;19;20018;-83
2022/10/17 03:01:38;;;;;;;1.92;1.40;;;15.80;59.00;;;14.91;59.08;101863.84;12258109;19;20466;-85
2022/10/17 03:05:40;;;;;;;1.60;1.50;;;15.80;59.10;;;14.91;59.10;101864.69;12259602;19;20027;-85
2022/10/17 03:09:42;;;;;;;1.55;1.33;;;15.80;59.20;;;14.70;58.93;101826.41;12263222;19;20073;-84
2022/10/17 03:13:44;;;;;;;3.72;1.48;;;15.80;59.40;;;14.78;59.21;101845.25;12261066;19;20453;-85
2022/10/17 03:17:45;;;;;;;1.92;1.50;;;16.00;59.80;;;14.58;59.21;101810.38;12256755;19;20021;-85
2022/10/17 03:21:48;;;;;;;1.63;1.52;;;15.70;60.00;;;14.92;59.30;101861.09;12258037;19;20021;-84
2022/10/17 03:25:51;;;;;;;1.83;1.50;;;15.80;60.30;;;14.87;59.46;101843.88;12258029;19;20018;-84
2022/10/17 03:29:53;;;;;;;4.90;3.80;;;15.80;60.40;;;14.76;59.23;101815.53;12259541;19;20015;-84
2022/10/17 03:33:58;;;;;;;6.00;1.40;;;16.00;61.00;;;14.96;59.34;101846.84;12261392;19;20010;-85
2022/10/17 03:38:00;;;;;;;2.17;1.80;;;15.80;60.90;;;14.93;59.43;101840.91;12261197;19;20006;-85
2022/10/17 03:42:03;;;;;;;1.80;1.70;;;15.90;61.80;;;15.10;59.64;101855.75;12256757;19;20081;-85
2022/10/17 03:46:05;;;;;;;1.42;1.35;;;15.90;62.10;;;14.98;59.73;101829.19;12253231;19;20473;-84
2022/10/17 03:50:08;;;;;;;1.60;1.50;;;15.90;62.20;;;15.17;59.72;101846.56;12253416;19;20019;-84
2022/10/17 03:54:12;;;;;;;2.13;1.35;;;16.00;62.60;;;15.08;59.97;101819.00;12256308;19;20018;-84
2022/10/17 03:58:14;;;;;;;1.63;1.52;;;16.00;63.10;;;15.28;59.86;101854.69;12261978;19;20080;-84
2022/10/17 04:02:16;;;;;;;2.55;1.55;;;16.20;62.80;;;15.16;59.81;101832.56;12254042;19;20501;-84
2022/10/17 04:06:19;;;;;;;2.67;1.65;;;16.10;62.30;;;15.29;60.05;101843.25;12255380;19;20035;-84
2022/10/17 04:10:20;;;;;;;2.60;1.67;;;16.20;62.10;;;15.15;59.95;101819.50;12254520;19;20015;-85
2022/10/17 04:14:22;;;;;;;2.13;1.63;;;16.40;61.90;;;15.24;59.98;101826.88;12253977;19;20024;-85
2022/10/17 04:18:26;;;;;;;1.65;1.40;;;16.20;61.70;;;15.27;59.90;101822.28;12256539;19;20022;-84
2022/10/17 04:22:29;;;;;;;1.60;1.50;;;16.20;61.90;;;15.38;60.00;101826.09;12251982;19;20003;-85
2022/10/17 04:26:31;;;;;;;4.28;1.70;;;16.20;62.00;;;15.24;60.20;101800.56;12252305;19;20010;-84
2022/10/17 04:30:33;;;;;;;3.00;1.85;;;16.20;62.10;;;15.21;60.19;101784.97;12255515;19;20461;-84
2022/10/17 04:34:35;;;;;;;1.58;1.48;;;16.20;62.30;;;15.40;60.17;101827.69;12254461;19;20035;-84
2022/10/17 04:38:37;;;;;;;2.95;2.67;;;16.20;62.20;;;15.25;60.25;101799.63;12255730;19;20011;-85
2022/10/17 04:42:40;;;;;;;1.80;1.58;;;16.20;62.40;;;15.34;60.13;101833.31;12252758;19;20044;-84
2022/10/17 04:46:44;;;;;;;1.70;1.60;;;16.20;62.30;;;15.27;60.17;101818.81;12249767;19;20011;-83
2022/10/17 04:50:58;;;;;;;1.55;1.45;;;16.20;62.20;;;15.16;60.10;101784.38;12250995;19;20043;-84
2022/10/17 04:55:12;;;;;;;4.93;2.03;;;16.30;62.60;;;15.38;60.26;101812.91;12251086;19;20021;-84
2022/10/17 04:59:15;;;;;;;1.88;1.77;;;16.30;62.30;;;15.40;60.35;101818.94;12251066;19;20043;-85
2022/10/17 05:03:19;;;;;;;2.65;2.20;;;16.30;62.20;;;15.44;60.28;101823.09;12251913;19;20061;-84
2022/10/17 05:07:21;;;;;;;2.05;1.88;;;16.40;62.40;;;15.36;60.36;101812.16;12253619;19;20018;-85
2022/10/17 05:11:32;;;;;;;2.20;2.03;;;16.40;62.80;;;15.46;60.42;101827.31;12255169;19;20066;-85
2022/10/17 05:15:35;;;;;;;1.92;1.83;;;16.50;63.10;;;15.21;60.54;101782.31;12252695;19;20322;-85
2022/10/17 05:19:37;;;;;;;4.18;1.83;;;16.50;62.90;;;15.44;60.47;101823.94;12249068;19;20011;-85
2022/10/17 05:23:40;;;;;;;3.38;2.00;;;16.40;62.70;;;15.50;60.57;101830.66;12253697;19;20018;-85
2022/10/17 05:27:42;;;;;;;3.58;1.80;;;16.40;62.30;;;15.26;60.51;101793.44;12247453;19;20063;-85
2022/10/17 05:31:44;;;;;;;4.15;1.88;;;16.40;62.00;;;15.45;60.59;101830.06;12252743;19;20117;-85
2022/10/17 05:35:46;;;;;;;3.30;1.98;;;16.40;62.00;;;15.39;60.42;101822.50;12249959;19;20445;-85
2022/10/17 05:39:48;;;;;;;2.75;2.13;;;16.40;61.90;;;15.44;60.53;101831.81;12250511;19;20010;-84
2022/10/17 05:43:51;;;;;;;2.30;1.60;;;16.60;61.90;;;15.48;60.41;101833.34;12247562;19;20465;-85
2022/10/17 05:47:58;;;;;;;1.85;1.75;;;16.30;61.80;;;15.42;60.46;101822.34;12245821;19;20118;-85
2022/10/17 05:52:01;;;;;;;2.45;1.95;;;16.40;61.90;;;15.48;60.68;101830.72;12240885;19;20018;-85
2022/10/17 05:56:11;;;;;;;6.18;2.50;;;16.40;62.30;;;15.37;60.45;101822.59;12245533;19;20457;-85
2022/10/17 06:00:13;;;;;;;3.17;1.85;;;16.40;61.90;;;15.42;60.53;101833.72;12246477;19;20014;-87
2022/10/17 06:04:20;;;;;;;1.80;1.67;;;16.40;61.50;;;15.45;60.51;101844.06;12260685;19;20013;-85
2022/10/17 06:08:22;;;;;;;2.28;1.90;;;16.30;61.40;;;15.40;60.60;101843.47;12249851;19;20416;-85
2022/10/17 06:12:25;;;;;;;3.35;1.73;;;16.40;61.50;;;15.36;60.57;101834.06;12255721;19;20011;-85
2022/10/17 06:16:26;;;;;;;5.05;1.88;;;16.30;61.50;;;15.39;60.59;101849.69;12096086;19;3067589;-85
2022/10/17 06:20:29;;;;;;;2.78;1.88;;;16.30;61.60;;;15.19;60.49;101821.88;12257989;19;20039;-85
2022/10/17 06:24:31;;;;;;;1.80;1.67;;;16.30;61.60;;;15.40;60.57;101879.50;12255092;19;20481;-85
2022/10/17 06:28:36;;;;;;;3.43;1.80;;;16.50;62.00;;;15.24;60.56;101846.16;12260439;19;20018;-86
2022/10/17 06:32:38;;;;;;;1.90;1.80;;;16.30;62.20;;;15.39;60.95;101870.75;12251674;19;20107;-85
2022/10/17 06:36:40;;;;;;;3.60;2.10;;;16.30;62.70;;;15.43;60.79;101877.53;12252594;19;20015;-85
2022/10/17 06:40:43;;;;;;;2.25;2.03;;;16.30;62.80;;;15.00;60.85;101815.97;12255054;19;20018;-85
2022/10/17 06:44:44;;;;;;;1.90;1.75;;;16.50;62.90;;;15.16;60.98;101842.25;12258325;19;20097;-85
2022/10/17 06:48:57;;;;;;;1.95;1.77;;;16.40;63.00;;;15.24;60.91;101861.09;12258414;19;20010;-86
2022/10/17 06:53:04;;;;;;;2.80;1.52;;;16.60;63.30;;;15.50;61.00;101893.84;12259464;19;20485;-84
2022/10/17 06:57:24;;;;;;;1.67;1.58;;;16.40;63.40;;;15.57;60.90;101904.84;12251734;19;20014;-84
2022/10/17 07:01:45;;;;;;;3.05;2.03;;;16.40;64.00;;;15.59;60.89;101897.72;12253497;19;20019;-85
2022/10/17 07:05:51;;;;;;;2.25;2.05;;;16.50;65.30;;;15.54;61.27;101878.69;12254175;19;20066;-84
2022/10/17 07:09:53;;;;;;;2.90;2.70;;;16.60;66.30;;;15.81;61.37;101903.47;12253223;19;20541;-84
2022/10/17 07:13:55;;;;;;;4.10;2.55;;;16.60;66.90;;;15.93;61.38;101908.03;12253976;19;20018;-84
2022/10/17 07:17:56;;;;;;;3.55;2.85;;;16.80;66.90;;;15.94;61.41;101903.59;12256777;19;20045;-84
2022/10/17 07:21:59;;;;;;;3.47;2.65;;;16.80;67.10;;;15.93;61.41;101881.69;12253787;19;20066;-84
2022/10/17 07:26:09;;;;;;;3.25;2.95;;;16.90;68.10;;;16.14;61.77;101908.50;12255461;19;20014;-84
2022/10/17 07:30:12;;;;;;;4.03;2.72;;;17.00;68.20;;;16.32;61.73;101911.84;12255020;19;20017;-84
2022/10/17 07:34:16;;;;;;;3.35;3.05;;;17.20;68.00;;;16.38;61.80;101914.09;12256050;19;20022;-85
2022/10/17 07:38:18;;;;;;;4.03;3.10;;;17.40;68.70;;;16.38;61.83;101898.28;12255616;19;20090;-85
2022/10/17 07:42:21;;;;;;;4.10;3.10;;;17.50;68.20;;;16.61;61.88;101911.88;12253351;19;20480;-84
2022/10/17 07:46:24;;;;;;;6.22;3.10;;;17.50;68.60;;;16.76;61.96;101926.72;12253756;19;20021;-84
2022/10/17 07:50:26;;;;;;;4.43;3.10;;;17.70;68.40;;;16.84;61.97;101926.28;12254686;19;20015;-84
2022/10/17 07:54:28;;;;;;;2.92;2.72;;;17.70;68.20;;;16.94;62.15;101927.41;12255292;19;20054;-84
2022/10/17 07:58:30;;;;;;;2.80;2.60;;;17.90;68.30;;;16.99;62.16;101920.06;12256761;19;20010;-84
2022/10/17 08:02:31;;;;;;;2.65;2.45;;;18.00;68.30;;;17.18;62.00;101913.63;12252910;19;20010;-85
2022/10/17 08:06:33;;;;;;;3.15;2.55;;;18.30;68.00;;;17.31;62.06;101919.81;12253649;19;20007;-86
2022/10/17 08:10:35;;;;;;;4.55;3.05;;;18.30;67.90;;;17.26;62.37;101879.66;12277460;19;20066;-86
2022/10/17 08:14:38;;;;;;;3.35;3.10;;;18.40;67.70;;;17.63;62.22;101922.13;12262937;19;20018;-85
2022/10/17 08:18:42;;;;;;;3.63;3.10;;;18.50;68.00;;;17.69;62.34;101909.38;12257258;19;20021;-85
2022/10/17 08:22:52;;;;;;;3.17;2.88;;;18.70;67.20;;;17.60;62.29;101877.41;12257529;19;20017;-84
2022/10/17 08:26:55;;;;;;;5.25;3.13;;;18.90;67.40;;;17.70;62.05;101871.41;12248836;19;20491;-84
2022/10/17 08:31:17;;;;;;;3.47;3.05;;;19.00;67.10;;;18.06;62.32;101908.72;12247823;19;20010;-85
2022/10/17 08:35:21;;;;;;;3.05;2.85;;;19.20;66.50;;;18.26;62.10;101917.94;12249150;19;20014;-85
2022/10/17 08:39:22;;;;;;;3.33;3.03;;;19.30;66.40;;;18.47;62.19;101926.16;12246969;19;20029;-85
2022/10/17 08:44:06;;;;;;;3.50;3.20;;;19.50;66.30;;;18.65;62.41;101921.41;12252486;19;20619;-85
2022/10/17 08:48:16;;;;;;;6.07;3.72;;;19.70;66.20;;;18.78;62.02;101909.88;12248960;19;20489;-85
2022/10/17 08:52:36;;;;;;;3.47;2.88;;;19.80;65.00;;;18.88;62.31;101886.25;12251273;19;20338;-85
2022/10/17 08:56:44;;;;;;;3.10;2.80;;;20.00;65.30;;;19.23;61.98;101906.69;12248118;19;20011;-85
2022/10/17 09:01:32;;;;;;;3.20;2.90;;;20.30;65.10;;;19.46;62.01;101908.47;12250971;19;20492;-84
2022/10/17 09:05:55;;;;;;;4.75;3.17;;;20.40;64.30;;;19.62;62.35;101900.25;12248202;19;20011;-84
2022/10/17 09:10:16;;;;;;;3.67;2.80;;;20.70;64.30;;;19.88;61.97;101900.13;12251226;19;20025;-84
2022/10/17 09:15:10;;;;;;;2.83;2.63;;;21.00;63.40;;;20.09;62.12;101908.22;12252759;19;20014;-85
2022/10/17 09:19:29;;;;;;;3.00;2.80;;;21.20;62.50;;;20.26;61.81;101899.84;12249373;19;20023;-85
2022/10/17 09:23:45;;;;;;;2.78;2.58;;;21.40;62.20;;;20.42;61.71;101901.31;12251701;19;20019;-84
2022/10/17 09:28:31;;;;;;;3.63;3.33;;;21.60;61.80;;;20.69;61.76;101914.25;12244737;19;20022;-86
2022/10/17 09:32:33;;;;;;;2.92;2.63;;;21.80;60.90;;;20.88;61.67;101913.63;12253434;19;20045;-85
2022/10/17 09:36:39;;;;;;;3.10;2.90;;;22.00;60.60;;;21.05;61.28;101918.41;12247360;19;20035;-85
2022/10/17 09:40:41;;;;;;;3.42;2.60;;;22.30;59.60;;;21.20;61.33;101917.19;12248648;19;20027;-84
2022/10/17 09:45:00;;;;;;;3.80;2.60;;;22.30;59.50;;;21.35;61.34;101922.19;12248316;19;20007;-85
2022/10/17 09:49:18;;;;;;;2.83;2.63;;;22.50;59.80;;;21.48;61.12;101908.78;12249012;19;20049;-86
2022/10/17 09:53:29;;;;;;;3.05;2.75;;;22.60;59.20;;;21.46;60.91;101876.16;12248847;19;20026;-86
2022/10/17 09:58:00;;;;;;;3.20;2.90;;;22.80;59.20;;;21.60;60.86;101874.06;12244468;19;20039;-85
2022/10/17 10:02:12;;;;;;;3.22;2.92;;;22.90;59.30;;;21.91;61.06;101892.75;12246270;19;20096;-85
2022/10/17 10:06:19;;;;;;;2.80;2.55;;;23.10;58.70;;;22.09;60.65;101895.66;12245064;19;20021;-84
2022/10/17 10:10:26;;;;;;;3.17;2.88;;;23.20;58.40;;;;;;12248810;19;20461;-85
2022/10/17 10:14:35;;;;;;;3.10;2.80;;;23.40;57.90;;;22.37;60.63;101880.00;12246135;19;20033;-85
2022/10/17 10:18:37;;;;;;;3.92;2.83;;;23.60;58.20;;;22.50;60.24;101883.28;12256959;19;20476;-86
2022/10/17 10:22:39;;;;;;;3.20;2.90;;;23.60;58.10;;;22.65;59.88;101886.41;12243595;19;20363;-86
2022/10/17 10:26:49;;;;;;;5.25;3.10;;;23.70;57.30;;;22.80;59.72;101898.38;12240651;19;20023;-86
2022/10/17 10:30:52;;;;;;;3.22;2.92;;;23.90;56.80;;;22.90;59.74;101890.38;12245403;19;20014;-87
2022/10/17 10:35:07;;;;;;;2.60;2.40;;;24.00;57.10;;;23.05;59.55;101885.56;12245613;19;20031;-86
2022/10/17 10:39:43;;;;;;;2.78;2.53;;;24.10;56.70;;;22.90;59.48;101848.63;12245794;19;20469;-86
2022/10/17 10:43:48;;;;;;;;;;;24.30;57.10;;;23.17;59.81;101893.31;12246179;19;20007;-88
2022/10/17 10:48:23;;;;;;;2.47;2.28;;;24.40;57.40;;;23.24;59.26;101877.59;12245268;19;19990;-88
2022/10/17 10:53:04;;;;;;;4.03;2.78;;;24.40;56.90;;;23.45;59.63;101897.94;12248269;19;20074;-87
2022/10/17 10:57:18;;;;;;;4.22;2.53;;;24.70;56.90;;;23.53;59.36;101879.41;12244758;19;20087;-86
2022/10/17 11:01:38;;;;;;;3.17;2.95;;;24.70;56.60;;;23.70;58.80;101897.34;12255354;19;20028;-87
2022/10/17 11:06:01;;;;;;;2.60;2.40;;;24.80;56.40;;;23.80;58.67;101884.88;12256116;19;20388;-86
2022/10/17 11:10:23;;;;;;;3.63;3.33;;;24.90;56.50;;;23.95;59.00;101890.63;12255811;19;20010;-88
2022/10/17 11:14:41;;;;;;;3.33;3.03;;;25.00;56.20;;;24.07;58.26;101881.47;12258849;19;20026;-87
2022/10/17 11:19:32;;;;;;;4.78;3.13;;;25.10;55.30;;;24.14;58.63;101873.72;12258369;19;20397;-88
2022/10/17 11:23:45;;;;;;;3.50;3.20;;;25.20;55.60;;;24.28;57.70;101872.41;12254644;19;20020;-87
2022/10/17 11:27:47;;;;;;;3.38;3.08;;;25.30;55.10;;;24.35;57.43;101853.97;12253263;19;20018;-85
2022/10/17 11:31:54;;;;;;;3.60;3.30;;;25.50;54.90;;;24.52;57.36;101874.59;12255910;19;20416;-86
2022/10/17 11:36:04;;;;;;;3.35;3.05;;;25.50;55.30;;;24.58;57.86;101862.47;12253455;19;20357;-85
2022/10/17 11:40:30;;;;;;;4.45;3.80;;;25.60;55.70;;;24.34;57.36;101806.91;12254913;19;20457;-86
2022/10/17 11:44:40;;;;;;;4.03;3.72;;;25.60;54.30;;;24.68;57.28;101855.22;12254047;19;20070;-86
2022/10/17 11:49:08;;;;;;;3.75;3.45;;;25.80;54.60;;;24.81;57.06;101863.72;12253738;19;20088;-87
2022/10/17 11:53:21;;;;;;;3.83;3.38;;;25.80;54.30;;;24.87;56.78;101859.59;12255368;19;20282;-87
2022/10/17 11:58:00;;;;;;;3.70;3.40;;;25.90;54.30;;;24.92;57.06;101857.31;12248554;19;20026;-87
2022/10/17 12:02:11;;;;;;;2.97;2.78;;;25.90;55.20;;;24.93;56.78;101854.53;12250210;19;20014;-88
2022/10/17 12:06:49;;;;;;;4.03;3.20;;;26.00;54.30;;;25.04;56.33;101849.94;12250781;19;20018;-86
2022/10/17 12:11:06;;;;;;;4.10;3.70;;;26.00;54.30;;;25.13;56.60;101846.34;12254830;19;20006;-87
2022/10/17 12:15:22;;;;;;;4.35;3.92;;;26.20;54.20;;;25.17;56.23;101851.28;12253854;19;20353;-86
2022/10/17 12:19:27;;;;;;;4.15;3.85;;;26.10;54.50;;;25.19;56.35;101831.56;12253010;19;20082;-85
2022/10/17 12:23:31;;;;;;;5.30;4.80;;;26.20;54.30;;;25.29;55.33;101843.03;12268134;19;20473;-86
2022/10/17 12:27:42;;;;;;;3.95;3.60;;;26.20;52.80;;;25.35;55.62;101834.38;12253652;19;20019;-85
2022/10/17 12:32:27;;;;;;;6.95;3.92;;;26.30;53.40;;;25.40;55.50;101840.09;12251401;19;20019;-84
2022/10/17 12:36:44;;;;;;;4.35;3.95;;;26.30;53.80;;;25.16;55.49;101780.06;12250227;19;20022;-86
2022/10/17 12:41:37;;;;;;;3.95;3.65;;;26.50;53.70;;;25.54;55.17;101830.69;12251341;19;20010;-85
2022/10/17 12:46:25;;;;;;;4.97;3.57;;;26.50;53.10;;;25.17;55.26;101757.72;12246966;19;20078;-85
2022/10/17 12:51:30;;;;;;;4.22;3.83;;;26.60;51.90;;;25.56;54.95;101799.25;12250382;19;20275;-83
2022/10/17 12:55:46;;;;;;;4.15;3.65;;;26.60;52.60;;;25.36;54.62;101753.16;12250613;19;20476;-83
2022/10/17 13:00:44;;;;;;;4.97;4.45;;;26.90;53.10;;;25.42;54.55;101762.41;12252674;19;20019;-84
2022/10/17 13:05:43;;;;;;;3.95;3.65;;;26.70;52.70;;;25.45;54.44;101767.44;12245504;19;20022;-84
2022/10/17 13:09:51;;;;;;;5.30;4.20;;;26.70;52.50;;;25.86;53.90;101821.22;12249705;19;20017;-84
2022/10/17 13:13:57;;;;;;;4.22;3.78;;;26.80;51.70;;;25.80;54.00;101815.47;12250435;19;20355;-83
2022/10/17 13:18:00;;;;;;;4.82;3.83;;;26.70;52.80;;;25.78;53.94;101801.41;12255108;19;20023;-86
2022/10/17 13:22:15;;;;;;;6.43;3.72;;;26.70;52.40;;;25.77;54.03;101789.03;12246719;19;20014;-85
2022/10/17 13:26:25;;;;;;;3.97;3.67;;;26.70;52.40;;;25.88;53.79;101796.00;12247501;19;20025;-85
2022/10/17 13:30:34;;;;;;;5.38;3.47;;;26.70;52.20;;;25.87;54.17;101794.31;12250511;19;20019;-84
2022/10/17 13:34:35;;;;;;;4.45;3.35;;;26.90;52.70;;;25.82;53.54;101791.25;12250701;19;20021;-85
2022/10/17 13:38:37;;;;;;;5.10;4.30;;;26.80;52.80;;;25.95;53.59;101810.44;12250710;19;20031;-85
2022/10/17 13:42:40;;;;;;;4.30;3.90;;;26.80;52.20;;;25.99;53.70;101819.78;12247597;19;20369;-84
2022/10/17 13:46:43;;;;;;;4.10;3.75;;;26.80;52.50;;;25.99;53.40;101825.16;12248688;19;20099;-84
2022/10/17 13:50:49;;;;;;;4.15;3.55;;;26.80;52.00;;;25.97;53.28;101805.72;12249667;19;20014;-84
2022/10/17 13:54:52;;;;;;;3.58;3.28;;;26.80;52.50;;;26.04;53.28;101812.13;12247961;19;20041;-84
2022/10/17 13:59:05;;;;;;;5.45;3.85;;;26.90;52.60;;;26.04;53.58;101801.41;12247964;19;20006;-85
2022/10/17 14:03:07;;;;;;;4.18;3.78;;;26.90;51.90;;;26.11;53.16;101811.47;12248676;19;20028;-83
2022/10/17 14:07:30;;;;;;;3.92;3.58;;;26.90;52.20;;;25.98;53.41;101804.75;12245824;19;20023;-83
2022/10/17 14:11:39;;;;;;;4.68;4.22;;;26.90;52.50;;;26.01;52.89;101799.06;12248751;19;20365;-84
2022/10/17 14:15:45;;;;;;;4.00;3.70;;;26.80;51.70;;;26.05;53.21;101812.97;12245109;19;20014;-84
2022/10/17 14:20:04;;;;;;;3.92;3.60;;;27.00;52.10;;;26.03;53.16;101815.81;12247342;19;20026;-83
2022/10/17 14:24:21;;;;;;;4.78;4.25;;;26.90;52.30;;;26.07;52.90;101816.31;12255170;19;20014;-84
2022/10/17 14:28:29;;;;;;;4.70;4.18;;;26.80;52.10;;;26.03;52.54;101815.81;12252225;19;20024;-87
2022/10/17 14:32:36;;;;;;;4.22;3.83;;;26.80;51.40;;;26.05;52.67;101810.28;12254150;19;20030;-83
2022/10/17 14:36:41;;;;;;;4.28;3.88;;;27.00;52.10;;;26.04;52.77;101809.44;12248269;19;20025;-84
2022/10/17 14:41:04;;;;;;;4.15;3.78;;;26.80;51.50;;;26.07;52.82;101816.31;12255612;19;20017;-83
2022/10/17 14:45:13;;;;;;;4.63;3.92;;;26.80;52.10;;;26.11;52.24;101828.38;12252181;19;20018;-86
2022/10/17 14:49:21;;;;;;;3.97;3.60;;;26.90;52.20;;;26.10;52.50;101833.91;12257714;19;20014;-85
2022/10/17 14:53:27;;;;;;;3.97;3.58;;;26.80;52.00;;;26.10;52.40;101828.56;12255074;19;20350;-84
2022/10/17 14:57:44;;;;;;;;;;;26.80;52.10;;;25.81;52.79;101798.41;12254393;19;20039;-85
2022/10/17 15:01:46;;;;;;;3.33;3.03;;;26.80;52.70;;;25.85;52.35;101790.97;12238248;19;20337;-84
2022/10/17 15:05:49;;;;;;;4.03;3.65;;;26.80;51.80;;;26.03;52.25;101829.22;12250658;19;20018;-87
2022/10/17 15:09:52;;;;;;;4.25;3.50;;;26.70;52.00;;;25.96;52.56;101827.31;12256561;19;20027;-86
2022/10/17 15:13:54;;;;;;;5.55;3.53;;;26.80;52.20;;;26.00;52.52;101842.88;12249391;19;20022;-84
2022/10/17 15:17:56;;;;;;;4.18;3.33;;;26.70;52.30;;;25.95;52.36;101842.53;12252259;19;20014;-85
2022/10/17 15:21:57;;;;;;;4.85;3.45;;;26.70;52.40;;;25.84;52.47;101826.72;12252545;19;20022;-85
2022/10/17 15:26:00;;;;;;;5.15;3.33;;;26.60;52.50;;;25.79;52.31;101826.34;12250828;19;20029;-84
2022/10/17 15:30:01;;;;;;;5.35;3.95;;;26.60;52.80;;;25.82;52.50;101844.78;12253474;19;20022;-83
2022/10/17 15:34:03;;;;;;;4.40;3.97;;;26.50;52.60;;;25.71;52.19;101831.66;12255601;19;20027;-84
2022/10/17 15:38:07;;;;;;;4.40;3.80;;;26.50;52.80;;;25.64;52.47;101826.06;12255438;19;20018;-84
2022/10/17 15:42:11;;;;;;;7.43;4.07;;;26.30;52.80;;;25.49;52.16;101823.16;12253236;19;20018;-85
2022/10/17 15:46:21;;;;;;;4.95;3.83;;;26.20;53.00;;;25.52;52.20;101843.34;12248921;19;20010;-86
2022/10/17 15:50:23;;;;;;;6.65;4.25;;;26.20;53.00;;;25.34;52.02;101822.00;12253918;19;20044;-86
2022/10/17 15:54:24;;;;;;;4.20;3.80;;;26.10;53.00;;;25.20;52.48;101827.91;12255033;19;20018;-86
2022/10/17 15:58:35;;;;;;;5.95;4.20;;;26.20;53.20;;;25.31;52.24;101860.59;12254242;19;20014;-84
2022/10/17 16:02:37;;;;;;;7.18;3.85;;;25.90;53.30;;;25.23;52.49;101857.00;12250246;19;20027;-88
2022/10/17 16:06:39;;;;;;;5.15;4.15;;;25.80;53.30;;;25.10;52.32;101844.81;12254568;19;20021;-85
2022/10/17 16:10:41;;;;;;;6.35;4.28;;;25.80;53.30;;;24.90;52.27;101827.25;12257111;19;20021;-85
2022/10/17 16:14:43;;;;;;;4.63;3.97;;;25.60;53.20;;;24.97;52.47;101851.53;12258955;19;20082;-84
2022/10/17 16:18:45;;;;;;;4.57;4.10;;;25.50;53.20;;;24.87;52.32;101859.59;12262076;19;20078;-85
2022/10/17 16:22:48;;;;;;;8.55;3.75;;;25.40;53.20;;;24.57;52.35;101832.22;12256832;19;20014;-86
2022/10/17 16:26:50;;;;;;;5.32;3.60;;;25.30;53.40;;;24.62;52.57;101859.34;12252184;19;20089;-85
2022/10/17 16:30:51;;;;;;;8.02;3.83;;;25.30;53.60;;;24.22;52.48;101819.59;12256440;19;20010;-84
2022/10/17 16:34:53;;;;;;;4.28;3.67;;;25.00;53.60;;;24.41;52.39;101864.91;12255224;19;20022;-84
2022/10/17 16:38:54;;;;;;;4.53;3.63;;;24.90;53.70;;;24.29;52.20;101866.06;12256992;19;20027;-84
2022/10/17 16:42:56;;;;;;;5.03;3.30;;;25.00;53.80;;;24.10;52.48;101847.47;12251119;19;20014;-84
2022/10/17 16:46:57;;;;;;;4.25;3.65;;;24.70;53.90;;;24.09;52.55;101867.97;12253588;19;20011;-85
2022/10/17 16:51:01;;;;;;;8.25;3.22;;;24.60;53.90;;;23.88;52.73;101846.81;12257076;19;20015;-85
2022/10/17 16:55:03;;;;;;;6.90;3.50;;;24.50;54.10;;;23.67;52.53;101828.31;12252521;19;20010;-84
2022/10/17 16:59:04;;;;;;;9.00;4.10;;;24.30;54.10;;;23.82;52.91;101864.25;12255367;19;20018;-84
2022/10/17 17:03:06;;;;;;;4.05;3.50;;;24.30;54.30;;;23.74;52.94;101864.13;12253318;19;21011;-85
2022/10/17 17:07:07;;;;;;;6.03;3.80;;;24.20;54.40;;;23.67;52.55;101870.97;12250663;19;20069;-84
2022/10/17 17:11:12;;;;;;;4.50;4.10;;;24.10;54.30;;;23.42;53.07;101845.75;12254473;19;20027;-84